Terminal Aerodrome Forecast
Issued by NWS Hastings, NE

Home | Current Version | Previous Version | Text Only | Print | Product List | Glossary On
Versions: 1 2 3 4 5 6 7 8 9 10 11 12 13
000
FTUS43 KGID 270331 AAA
TAFGRI
TAF AMD
KGRI 270331Z 2704/2724 10004KT P6SM VCSH OVC004
     FM270900 VRB03KT 3/4SM BR OVC004
     FM271100 15004KT 1SM BR OVC004
     FM271400 16004KT 3SM BR BKN025
     FM271600 16005KT P6SM BKN250=

USA.gov is the U.S. government's official web portal to all federal, state and local government web resources and services.